sensor_id;sensor_type;location;lat;lon;timestamp;P1;durP1;ratioP1;P2;durP2;ratioP2
15712;SDS011;7957;51.608;6.916;2023-08-30T00:00:53;7.43;;;6.73;;
15712;SDS011;7957;51.608;6.916;2023-08-30T00:03:19;8.10;;;7.07;;
15712;SDS011;7957;51.608;6.916;2023-08-30T00:05:46;8.37;;;7.57;;
15712;SDS011;7957;51.608;6.916;2023-08-30T00:08:13;8.00;;;7.20;;
15712;SDS011;7957;51.608;6.916;2023-08-30T00:10:44;7.97;;;7.37;;
15712;SDS011;7957;51.608;6.916;2023-08-30T00:13:11;7.90;;;7.23;;
15712;SDS011;7957;51.608;6.916;2023-08-30T00:15:38;7.93;;;7.17;;
15712;SDS011;7957;51.608;6.916;2023-08-30T00:18:05;8.20;;;7.50;;
15712;SDS011;7957;51.608;6.916;2023-08-30T00:20:32;7.47;;;6.87;;
15712;SDS011;7957;51.608;6.916;2023-08-30T00:22:59;7.50;;;6.83;;
15712;SDS011;7957;51.608;6.916;2023-08-30T00:25:26;7.43;;;6.83;;
15712;SDS011;7957;51.608;6.916;2023-08-30T00:27:55;7.73;;;7.13;;
15712;SDS011;7957;51.608;6.916;2023-08-30T00:30:21;7.90;;;7.20;;
15712;SDS011;7957;51.608;6.916;2023-08-30T00:32:48;7.67;;;6.97;;
15712;SDS011;7957;51.608;6.916;2023-08-30T00:35:15;7.80;;;7.20;;
15712;SDS011;7957;51.608;6.916;2023-08-30T00:37:42;7.87;;;7.10;;
15712;SDS011;7957;51.608;6.916;2023-08-30T00:40:09;8.17;;;7.37;;
15712;SDS011;7957;51.608;6.916;2023-08-30T00:42:36;8.50;;;7.70;;
15712;SDS011;7957;51.608;6.916;2023-08-30T00:45:07;8.37;;;7.67;;
15712;SDS011;7957;51.608;6.916;2023-08-30T00:47:34;8.70;;;7.90;;
15712;SDS011;7957;51.608;6.916;2023-08-30T00:50:02;8.10;;;7.40;;
15712;SDS011;7957;51.608;6.916;2023-08-30T00:52:29;7.90;;;7.20;;
15712;SDS011;7957;51.608;6.916;2023-08-30T00:54:56;7.93;;;7.30;;
15712;SDS011;7957;51.608;6.916;2023-08-30T00:57:23;8.23;;;7.53;;
15712;SDS011;7957;51.608;6.916;2023-08-30T00:59:50;9.00;;;8.20;;
15712;SDS011;7957;51.608;6.916;2023-08-30T01:02:20;9.27;;;8.07;;
15712;SDS011;7957;51.608;6.916;2023-08-30T01:04:49;8.37;;;7.67;;
15712;SDS011;7957;51.608;6.916;2023-08-30T01:07:16;8.17;;;7.57;;
15712;SDS011;7957;51.608;6.916;2023-08-30T01:09:44;8.47;;;7.67;;
15712;SDS011;7957;51.608;6.916;2023-08-30T01:12:12;8.53;;;7.83;;
15712;SDS011;7957;51.608;6.916;2023-08-30T01:14:49;9.43;;;8.53;;
15712;SDS011;7957;51.608;6.916;2023-08-30T01:17:22;8.53;;;7.73;;
15712;SDS011;7957;51.608;6.916;2023-08-30T01:19:51;8.57;;;7.87;;
15712;SDS011;7957;51.608;6.916;2023-08-30T01:22:28;8.73;;;8.00;;
15712;SDS011;7957;51.608;6.916;2023-08-30T01:25:05;8.50;;;7.80;;
15712;SDS011;7957;51.608;6.916;2023-08-30T01:27:43;8.03;;;7.33;;
15712;SDS011;7957;51.608;6.916;2023-08-30T01:30:11;9.27;;;8.37;;
15712;SDS011;7957;51.608;6.916;2023-08-30T01:32:40;8.87;;;8.07;;
15712;SDS011;7957;51.608;6.916;2023-08-30T01:35:08;8.23;;;7.53;;
15712;SDS011;7957;51.608;6.916;2023-08-30T01:37:35;9.20;;;8.30;;
15712;SDS011;7957;51.608;6.916;2023-08-30T01:40:02;8.60;;;7.80;;
15712;SDS011;7957;51.608;6.916;2023-08-30T01:42:31;8.97;;;8.27;;
15712;SDS011;7957;51.608;6.916;2023-08-30T01:45:00;8.67;;;7.97;;
15712;SDS011;7957;51.608;6.916;2023-08-30T01:47:29;9.13;;;8.33;;
15712;SDS011;7957;51.608;6.916;2023-08-30T01:49:58;9.27;;;8.37;;
15712;SDS011;7957;51.608;6.916;2023-08-30T01:52:26;8.60;;;7.83;;
15712;SDS011;7957;51.608;6.916;2023-08-30T01:54:53;8.93;;;8.13;;
15712;SDS011;7957;51.608;6.916;2023-08-30T01:57:20;8.87;;;8.07;;
15712;SDS011;7957;51.608;6.916;2023-08-30T01:59:47;9.03;;;8.33;;
15712;SDS011;7957;51.608;6.916;2023-08-30T02:02:16;9.20;;;8.40;;
15712;SDS011;7957;51.608;6.916;2023-08-30T02:04:43;8.90;;;8.20;;
15712;SDS011;7957;51.608;6.916;2023-08-30T02:07:11;8.80;;;8.10;;
15712;SDS011;7957;51.608;6.916;2023-08-30T02:09:42;9.37;;;8.60;;
15712;SDS011;7957;51.608;6.916;2023-08-30T02:12:15;9.57;;;8.67;;
15712;SDS011;7957;51.608;6.916;2023-08-30T02:14:43;9.57;;;8.53;;
15712;SDS011;7957;51.608;6.916;2023-08-30T02:17:13;9.70;;;8.90;;
15712;SDS011;7957;51.608;6.916;2023-08-30T02:19:43;9.27;;;8.57;;
15712;SDS011;7957;51.608;6.916;2023-08-30T02:22:10;10.53;;;9.47;;
15712;SDS011;7957;51.608;6.916;2023-08-30T02:24:37;10.13;;;9.13;;
15712;SDS011;7957;51.608;6.916;2023-08-30T02:27:04;10.03;;;9.23;;
15712;SDS011;7957;51.608;6.916;2023-08-30T02:29:31;10.43;;;9.53;;
15712;SDS011;7957;51.608;6.916;2023-08-30T02:31:58;10.83;;;9.83;;
15712;SDS011;7957;51.608;6.916;2023-08-30T02:34:26;10.27;;;9.40;;
15712;SDS011;7957;51.608;6.916;2023-08-30T02:36:53;10.57;;;9.57;;
15712;SDS011;7957;51.608;6.916;2023-08-30T02:39:21;10.30;;;9.50;;
15712;SDS011;7957;51.608;6.916;2023-08-30T02:41:48;10.87;;;9.97;;
15712;SDS011;7957;51.608;6.916;2023-08-30T02:44:15;10.70;;;9.80;;
15712;SDS011;7957;51.608;6.916;2023-08-30T02:46:41;10.23;;;9.27;;
15712;SDS011;7957;51.608;6.916;2023-08-30T02:49:08;11.10;;;9.87;;
15712;SDS011;7957;51.608;6.916;2023-08-30T02:51:37;11.43;;;10.43;;
15712;SDS011;7957;51.608;6.916;2023-08-30T02:54:04;9.90;;;9.03;;
15712;SDS011;7957;51.608;6.916;2023-08-30T02:56:31;9.70;;;8.90;;
15712;SDS011;7957;51.608;6.916;2023-08-30T02:58:58;10.63;;;9.53;;
15712;SDS011;7957;51.608;6.916;2023-08-30T03:01:25;11.13;;;10.23;;
15712;SDS011;7957;51.608;6.916;2023-08-30T03:03:52;11.50;;;10.30;;
15712;SDS011;7957;51.608;6.916;2023-08-30T03:06:19;10.43;;;9.53;;
15712;SDS011;7957;51.608;6.916;2023-08-30T03:08:48;11.07;;;10.07;;
15712;SDS011;7957;51.608;6.916;2023-08-30T03:11:15;10.27;;;9.47;;
15712;SDS011;7957;51.608;6.916;2023-08-30T03:13:42;11.57;;;10.47;;
15712;SDS011;7957;51.608;6.916;2023-08-30T03:16:12;11.80;;;10.73;;
15712;SDS011;7957;51.608;6.916;2023-08-30T03:18:39;11.87;;;10.50;;
15712;SDS011;7957;51.608;6.916;2023-08-30T03:21:08;11.90;;;10.90;;
15712;SDS011;7957;51.608;6.916;2023-08-30T03:23:35;11.30;;;10.40;;
15712;SDS011;7957;51.608;6.916;2023-08-30T03:26:08;12.30;;;11.10;;
15712;SDS011;7957;51.608;6.916;2023-08-30T03:28:36;11.70;;;10.63;;
15712;SDS011;7957;51.608;6.916;2023-08-30T03:31:10;12.03;;;11.03;;
15712;SDS011;7957;51.608;6.916;2023-08-30T03:33:38;11.30;;;10.30;;
15712;SDS011;7957;51.608;6.916;2023-08-30T03:36:06;11.43;;;10.37;;
15712;SDS011;7957;51.608;6.916;2023-08-30T03:38:34;12.20;;;11.10;;
15712;SDS011;7957;51.608;6.916;2023-08-30T03:41:01;12.17;;;10.57;;
15712;SDS011;7957;51.608;6.916;2023-08-30T03:43:30;12.43;;;11.33;;
15712;SDS011;7957;51.608;6.916;2023-08-30T03:45:57;11.97;;;10.87;;
15712;SDS011;7957;51.608;6.916;2023-08-30T03:48:24;12.93;;;11.73;;
15712;SDS011;7957;51.608;6.916;2023-08-30T03:50:51;13.10;;;11.93;;
15712;SDS011;7957;51.608;6.916;2023-08-30T03:53:18;12.93;;;11.83;;
15712;SDS011;7957;51.608;6.916;2023-08-30T03:55:45;13.33;;;12.13;;
15712;SDS011;7957;51.608;6.916;2023-08-30T03:58:11;15.13;;;13.10;;
15712;SDS011;7957;51.608;6.916;2023-08-30T04:00:40;13.47;;;12.17;;
15712;SDS011;7957;51.608;6.916;2023-08-30T04:03:07;14.20;;;12.90;;
15712;SDS011;7957;51.608;6.916;2023-08-30T04:05:36;13.23;;;12.03;;
15712;SDS011;7957;51.608;6.916;2023-08-30T04:08:03;13.40;;;12.20;;
15712;SDS011;7957;51.608;6.916;2023-08-30T04:10:34;13.70;;;12.50;;
15712;SDS011;7957;51.608;6.916;2023-08-30T04:13:01;13.73;;;12.43;;
15712;SDS011;7957;51.608;6.916;2023-08-30T04:15:28;13.10;;;12.00;;
15712;SDS011;7957;51.608;6.916;2023-08-30T04:17:57;13.83;;;12.63;;
15712;SDS011;7957;51.608;6.916;2023-08-30T04:20:23;13.53;;;12.30;;
15712;SDS011;7957;51.608;6.916;2023-08-30T04:22:50;13.80;;;12.47;;
15712;SDS011;7957;51.608;6.916;2023-08-30T04:25:18;14.03;;;12.77;;
15712;SDS011;7957;51.608;6.916;2023-08-30T04:27:45;15.07;;;13.47;;
15712;SDS011;7957;51.608;6.916;2023-08-30T04:30:12;14.13;;;12.93;;
15712;SDS011;7957;51.608;6.916;2023-08-30T04:32:39;13.97;;;12.77;;
15712;SDS011;7957;51.608;6.916;2023-08-30T04:35:08;14.47;;;13.10;;
15712;SDS011;7957;51.608;6.916;2023-08-30T04:37:35;14.10;;;12.70;;
15712;SDS011;7957;51.608;6.916;2023-08-30T04:40:04;15.27;;;13.87;;
15712;SDS011;7957;51.608;6.916;2023-08-30T04:42:33;13.70;;;12.40;;
15712;SDS011;7957;51.608;6.916;2023-08-30T04:44:59;15.50;;;14.00;;
15712;SDS011;7957;51.608;6.916;2023-08-30T04:47:27;13.87;;;12.67;;
15712;SDS011;7957;51.608;6.916;2023-08-30T04:49:54;14.53;;;13.23;;
15712;SDS011;7957;51.608;6.916;2023-08-30T04:52:23;14.20;;;12.90;;
15712;SDS011;7957;51.608;6.916;2023-08-30T04:54:50;15.23;;;13.83;;
15712;SDS011;7957;51.608;6.916;2023-08-30T04:57:17;14.93;;;13.63;;
15712;SDS011;7957;51.608;6.916;2023-08-30T04:59:44;15.47;;;13.90;;
15712;SDS011;7957;51.608;6.916;2023-08-30T05:02:12;14.57;;;13.27;;
15712;SDS011;7957;51.608;6.916;2023-08-30T05:04:39;14.77;;;13.50;;
15712;SDS011;7957;51.608;6.916;2023-08-30T05:07:06;15.27;;;13.87;;
15712;SDS011;7957;51.608;6.916;2023-08-30T05:09:34;15.23;;;13.97;;
15712;SDS011;7957;51.608;6.916;2023-08-30T05:12:01;14.93;;;13.63;;
15712;SDS011;7957;51.608;6.916;2023-08-30T05:14:29;14.87;;;13.57;;
15712;SDS011;7957;51.608;6.916;2023-08-30T05:16:55;15.43;;;14.00;;
15712;SDS011;7957;51.608;6.916;2023-08-30T05:19:22;15.20;;;13.93;;
15712;SDS011;7957;51.608;6.916;2023-08-30T05:21:49;16.63;;;15.13;;
15712;SDS011;7957;51.608;6.916;2023-08-30T05:24:19;14.93;;;13.63;;
15712;SDS011;7957;51.608;6.916;2023-08-30T05:26:48;15.67;;;14.03;;
15712;SDS011;7957;51.608;6.916;2023-08-30T05:29:15;15.97;;;14.60;;
15712;SDS011;7957;51.608;6.916;2023-08-30T05:31:42;16.40;;;14.87;;
15712;SDS011;7957;51.608;6.916;2023-08-30T05:34:10;15.60;;;14.30;;
15712;SDS011;7957;51.608;6.916;2023-08-30T05:36:37;16.70;;;15.13;;
15712;SDS011;7957;51.608;6.916;2023-08-30T05:39:04;15.73;;;14.43;;
15712;SDS011;7957;51.608;6.916;2023-08-30T05:41:31;16.53;;;15.13;;
15712;SDS011;7957;51.608;6.916;2023-08-30T05:44:00;16.07;;;14.67;;
15712;SDS011;7957;51.608;6.916;2023-08-30T05:46:27;16.43;;;14.93;;
15712;SDS011;7957;51.608;6.916;2023-08-30T05:48:54;16.10;;;14.60;;
15712;SDS011;7957;51.608;6.916;2023-08-30T05:51:21;16.00;;;14.50;;
15712;SDS011;7957;51.608;6.916;2023-08-30T05:53:48;16.33;;;14.80;;
15712;SDS011;7957;51.608;6.916;2023-08-30T05:56:15;15.93;;;14.53;;
15712;SDS011;7957;51.608;6.916;2023-08-30T05:58:42;16.90;;;15.50;;
15712;SDS011;7957;51.608;6.916;2023-08-30T06:01:10;16.90;;;15.17;;
15712;SDS011;7957;51.608;6.916;2023-08-30T06:03:37;17.10;;;15.63;;
15712;SDS011;7957;51.608;6.916;2023-08-30T06:06:04;17.00;;;15.40;;
15712;SDS011;7957;51.608;6.916;2023-08-30T06:08:32;17.00;;;15.50;;
15712;SDS011;7957;51.608;6.916;2023-08-30T06:10:59;16.73;;;15.27;;
15712;SDS011;7957;51.608;6.916;2023-08-30T06:13:26;17.20;;;15.60;;
15712;SDS011;7957;51.608;6.916;2023-08-30T06:15:53;16.30;;;14.90;;
15712;SDS011;7957;51.608;6.916;2023-08-30T06:18:21;16.70;;;15.20;;
15712;SDS011;7957;51.608;6.916;2023-08-30T06:20:48;16.43;;;14.83;;
15712;SDS011;7957;51.608;6.916;2023-08-30T06:23:17;17.97;;;16.27;;
15712;SDS011;7957;51.608;6.916;2023-08-30T06:25:45;17.40;;;15.90;;
15712;SDS011;7957;51.608;6.916;2023-08-30T06:28:19;17.10;;;15.50;;
15712;SDS011;7957;51.608;6.916;2023-08-30T06:30:45;16.43;;;14.97;;
15712;SDS011;7957;51.608;6.916;2023-08-30T06:33:19;16.67;;;15.27;;
15712;SDS011;7957;51.608;6.916;2023-08-30T06:35:50;18.03;;;16.43;;
15712;SDS011;7957;51.608;6.916;2023-08-30T06:38:18;18.30;;;16.43;;
15712;SDS011;7957;51.608;6.916;2023-08-30T06:40:45;17.73;;;16.03;;
15712;SDS011;7957;51.608;6.916;2023-08-30T06:43:12;17.63;;;16.03;;
15712;SDS011;7957;51.608;6.916;2023-08-30T06:45:39;17.97;;;16.10;;
15712;SDS011;7957;51.608;6.916;2023-08-30T06:48:07;17.70;;;16.10;;
15712;SDS011;7957;51.608;6.916;2023-08-30T06:50:35;17.23;;;15.63;;
15712;SDS011;7957;51.608;6.916;2023-08-30T06:53:02;16.73;;;15.33;;
15712;SDS011;7957;51.608;6.916;2023-08-30T06:55:30;18.30;;;16.70;;
15712;SDS011;7957;51.608;6.916;2023-08-30T06:57:58;17.60;;;15.90;;
15712;SDS011;7957;51.608;6.916;2023-08-30T07:00:25;17.57;;;15.90;;
15712;SDS011;7957;51.608;6.916;2023-08-30T07:02:52;16.60;;;14.97;;
15712;SDS011;7957;51.608;6.916;2023-08-30T07:05:19;16.30;;;14.70;;
15712;SDS011;7957;51.608;6.916;2023-08-30T07:07:49;16.33;;;14.93;;
15712;SDS011;7957;51.608;6.916;2023-08-30T07:10:16;16.57;;;15.07;;
15712;SDS011;7957;51.608;6.916;2023-08-30T07:12:43;16.43;;;14.80;;
15712;SDS011;7957;51.608;6.916;2023-08-30T07:15:10;16.50;;;15.03;;
15712;SDS011;7957;51.608;6.916;2023-08-30T07:17:37;15.50;;;14.07;;
15712;SDS011;7957;51.608;6.916;2023-08-30T07:20:07;15.83;;;14.43;;
15712;SDS011;7957;51.608;6.916;2023-08-30T07:22:35;14.80;;;13.37;;
15712;SDS011;7957;51.608;6.916;2023-08-30T07:25:04;13.90;;;12.73;;
15712;SDS011;7957;51.608;6.916;2023-08-30T07:27:32;14.83;;;13.53;;
15712;SDS011;7957;51.608;6.916;2023-08-30T07:29:58;14.03;;;12.83;;
15712;SDS011;7957;51.608;6.916;2023-08-30T07:32:25;15.23;;;13.67;;
15712;SDS011;7957;51.608;6.916;2023-08-30T07:34:53;14.90;;;13.67;;
15712;SDS011;7957;51.608;6.916;2023-08-30T07:37:20;13.50;;;12.40;;
15712;SDS011;7957;51.608;6.916;2023-08-30T07:39:47;14.20;;;12.50;;
15712;SDS011;7957;51.608;6.916;2023-08-30T07:42:15;15.20;;;13.70;;
15712;SDS011;7957;51.608;6.916;2023-08-30T07:44:42;14.27;;;12.97;;
15712;SDS011;7957;51.608;6.916;2023-08-30T07:47:09;14.23;;;12.93;;
15712;SDS011;7957;51.608;6.916;2023-08-30T07:49:36;14.03;;;12.57;;
15712;SDS011;7957;51.608;6.916;2023-08-30T07:52:03;12.90;;;11.70;;
15712;SDS011;7957;51.608;6.916;2023-08-30T07:54:30;13.90;;;12.53;;
15712;SDS011;7957;51.608;6.916;2023-08-30T07:56:57;14.40;;;13.10;;
15712;SDS011;7957;51.608;6.916;2023-08-30T07:59:26;14.13;;;12.80;;
15712;SDS011;7957;51.608;6.916;2023-08-30T08:01:52;14.00;;;12.70;;
15712;SDS011;7957;51.608;6.916;2023-08-30T08:04:20;13.60;;;12.40;;
15712;SDS011;7957;51.608;6.916;2023-08-30T08:06:47;13.80;;;12.43;;
15712;SDS011;7957;51.608;6.916;2023-08-30T08:09:14;13.43;;;12.03;;
15712;SDS011;7957;51.608;6.916;2023-08-30T08:11:42;12.30;;;11.10;;
15712;SDS011;7957;51.608;6.916;2023-08-30T08:14:09;12.37;;;10.73;;
15712;SDS011;7957;51.608;6.916;2023-08-30T08:16:38;12.63;;;11.43;;
15712;SDS011;7957;51.608;6.916;2023-08-30T08:19:05;11.33;;;10.33;;
15712;SDS011;7957;51.608;6.916;2023-08-30T08:21:32;12.53;;;11.33;;
15712;SDS011;7957;51.608;6.916;2023-08-30T08:23:59;11.87;;;10.63;;
15712;SDS011;7957;51.608;6.916;2023-08-30T08:26:26;11.23;;;10.13;;
15712;SDS011;7957;51.608;6.916;2023-08-30T08:28:53;10.67;;;9.60;;
15712;SDS011;7957;51.608;6.916;2023-08-30T08:31:20;10.80;;;9.80;;
15712;SDS011;7957;51.608;6.916;2023-08-30T08:33:51;11.10;;;9.97;;
15712;SDS011;7957;51.608;6.916;2023-08-30T08:36:30;10.70;;;9.70;;
15712;SDS011;7957;51.608;6.916;2023-08-30T08:38:57;9.97;;;9.00;;
15712;SDS011;7957;51.608;6.916;2023-08-30T08:41:24;10.23;;;9.30;;
15712;SDS011;7957;51.608;6.916;2023-08-30T08:43:59;10.23;;;9.23;;
15712;SDS011;7957;51.608;6.916;2023-08-30T08:46:27;9.97;;;8.80;;
15712;SDS011;7957;51.608;6.916;2023-08-30T08:48:58;10.00;;;8.90;;
15712;SDS011;7957;51.608;6.916;2023-08-30T08:51:28;12.00;;;8.77;;
15712;SDS011;7957;51.608;6.916;2023-08-30T08:53:57;9.23;;;8.23;;
15712;SDS011;7957;51.608;6.916;2023-08-30T08:56:29;8.43;;;7.63;;
15712;SDS011;7957;51.608;6.916;2023-08-30T08:58:57;9.33;;;7.63;;
15712;SDS011;7957;51.608;6.916;2023-08-30T09:01:24;11.40;;;8.33;;
15712;SDS011;7957;51.608;6.916;2023-08-30T09:03:51;8.07;;;7.27;;
15712;SDS011;7957;51.608;6.916;2023-08-30T09:06:20;10.17;;;7.33;;
15712;SDS011;7957;51.608;6.916;2023-08-30T09:08:47;11.37;;;7.23;;
15712;SDS011;7957;51.608;6.916;2023-08-30T09:11:14;10.80;;;7.30;;
15712;SDS011;7957;51.608;6.916;2023-08-30T09:13:41;8.87;;;7.20;;
15712;SDS011;7957;51.608;6.916;2023-08-30T09:16:12;10.50;;;8.23;;
15712;SDS011;7957;51.608;6.916;2023-08-30T09:18:39;13.33;;;8.40;;
15712;SDS011;7957;51.608;6.916;2023-08-30T09:21:06;10.33;;;8.03;;
15712;SDS011;7957;51.608;6.916;2023-08-30T09:23:35;10.27;;;8.53;;
15712;SDS011;7957;51.608;6.916;2023-08-30T09:26:02;12.00;;;8.53;;
15712;SDS011;7957;51.608;6.916;2023-08-30T09:28:29;11.83;;;8.73;;
15712;SDS011;7957;51.608;6.916;2023-08-30T09:30:57;15.83;;;9.60;;
15712;SDS011;7957;51.608;6.916;2023-08-30T09:33:29;13.50;;;9.73;;
15712;SDS011;7957;51.608;6.916;2023-08-30T09:35:58;11.77;;;10.30;;
15712;SDS011;7957;51.608;6.916;2023-08-30T09:38:25;14.73;;;10.77;;
15712;SDS011;7957;51.608;6.916;2023-08-30T09:41:02;15.27;;;10.50;;
15712;SDS011;7957;51.608;6.916;2023-08-30T09:43:29;12.67;;;11.30;;
15712;SDS011;7957;51.608;6.916;2023-08-30T09:45:58;17.13;;;11.73;;
15712;SDS011;7957;51.608;6.916;2023-08-30T09:48:28;15.83;;;11.40;;
15712;SDS011;7957;51.608;6.916;2023-08-30T09:50:55;12.33;;;11.03;;
15712;SDS011;7957;51.608;6.916;2023-08-30T09:53:25;13.40;;;10.43;;
15712;SDS011;7957;51.608;6.916;2023-08-30T09:55:54;12.13;;;11.03;;
15712;SDS011;7957;51.608;6.916;2023-08-30T09:58:23;11.53;;;10.33;;
15712;SDS011;7957;51.608;6.916;2023-08-30T10:00:52;13.20;;;10.90;;
15712;SDS011;7957;51.608;6.916;2023-08-30T10:03:20;13.40;;;10.80;;
15712;SDS011;7957;51.608;6.916;2023-08-30T10:05:47;11.43;;;10.33;;
15712;SDS011;7957;51.608;6.916;2023-08-30T10:08:14;11.67;;;9.83;;
15712;SDS011;7957;51.608;6.916;2023-08-30T10:10:42;10.67;;;9.57;;
15712;SDS011;7957;51.608;6.916;2023-08-30T10:13:10;12.57;;;9.03;;
15712;SDS011;7957;51.608;6.916;2023-08-30T10:15:40;11.57;;;8.83;;
15712;SDS011;7957;51.608;6.916;2023-08-30T10:18:12;11.80;;;9.50;;
15712;SDS011;7957;51.608;6.916;2023-08-30T10:20:45;9.23;;;8.43;;
15712;SDS011;7957;51.608;6.916;2023-08-30T10:23:13;11.53;;;9.03;;
15712;SDS011;7957;51.608;6.916;2023-08-30T10:25:42;10.90;;;9.80;;
15712;SDS011;7957;51.608;6.916;2023-08-30T10:28:11;10.63;;;9.37;;
15712;SDS011;7957;51.608;6.916;2023-08-30T10:30:39;9.57;;;8.67;;
15712;SDS011;7957;51.608;6.916;2023-08-30T10:33:11;9.80;;;8.30;;
15712;SDS011;7957;51.608;6.916;2023-08-30T10:35:46;10.43;;;9.30;;
15712;SDS011;7957;51.608;6.916;2023-08-30T10:38:23;9.80;;;8.80;;
15712;SDS011;7957;51.608;6.916;2023-08-30T10:40:51;10.00;;;9.10;;
15712;SDS011;7957;51.608;6.916;2023-08-30T10:43:27;10.07;;;9.07;;
15712;SDS011;7957;51.608;6.916;2023-08-30T10:46:01;11.30;;;10.20;;
15712;SDS011;7957;51.608;6.916;2023-08-30T10:48:35;10.33;;;9.07;;
15712;SDS011;7957;51.608;6.916;2023-08-30T10:51:04;10.70;;;9.67;;
15712;SDS011;7957;51.608;6.916;2023-08-30T10:53:32;10.73;;;9.50;;
15712;SDS011;7957;51.608;6.916;2023-08-30T10:56:03;10.57;;;9.53;;
15712;SDS011;7957;51.608;6.916;2023-08-30T10:58:44;10.13;;;9.13;;
15712;SDS011;7957;51.608;6.916;2023-08-30T11:01:11;10.53;;;9.17;;
15712;SDS011;7957;51.608;6.916;2023-08-30T11:03:39;11.20;;;9.57;;
15712;SDS011;7957;51.608;6.916;2023-08-30T11:06:08;10.67;;;9.30;;
15712;SDS011;7957;51.608;6.916;2023-08-30T11:08:40;10.07;;;9.17;;
15712;SDS011;7957;51.608;6.916;2023-08-30T11:11:09;9.30;;;8.40;;
15712;SDS011;7957;51.608;6.916;2023-08-30T11:13:39;9.23;;;8.43;;
15712;SDS011;7957;51.608;6.916;2023-08-30T11:16:07;10.57;;;9.00;;
15712;SDS011;7957;51.608;6.916;2023-08-30T11:18:36;10.83;;;9.83;;
15712;SDS011;7957;51.608;6.916;2023-08-30T11:21:04;10.00;;;9.10;;
15712;SDS011;7957;51.608;6.916;2023-08-30T11:23:32;10.10;;;8.93;;
15712;SDS011;7957;51.608;6.916;2023-08-30T11:26:00;10.80;;;9.70;;
15712;SDS011;7957;51.608;6.916;2023-08-30T11:28:32;10.23;;;9.33;;
15712;SDS011;7957;51.608;6.916;2023-08-30T11:30:59;9.77;;;8.87;;
15712;SDS011;7957;51.608;6.916;2023-08-30T11:33:27;11.53;;;8.33;;
15712;SDS011;7957;51.608;6.916;2023-08-30T11:35:54;8.87;;;8.07;;
15712;SDS011;7957;51.608;6.916;2023-08-30T11:38:22;9.80;;;8.67;;
15712;SDS011;7957;51.608;6.916;2023-08-30T11:40:49;8.87;;;7.97;;
15712;SDS011;7957;51.608;6.916;2023-08-30T11:43:17;9.07;;;8.07;;
15712;SDS011;7957;51.608;6.916;2023-08-30T11:45:45;8.87;;;7.97;;
15712;SDS011;7957;51.608;6.916;2023-08-30T11:48:12;9.20;;;8.00;;
15712;SDS011;7957;51.608;6.916;2023-08-30T11:50:41;8.63;;;7.80;;
15712;SDS011;7957;51.608;6.916;2023-08-30T11:53:09;7.73;;;7.03;;
15712;SDS011;7957;51.608;6.916;2023-08-30T11:55:37;7.70;;;6.70;;
15712;SDS011;7957;51.608;6.916;2023-08-30T11:58:05;7.70;;;7.00;;
15712;SDS011;7957;51.608;6.916;2023-08-30T12:00:32;7.40;;;6.70;;
15712;SDS011;7957;51.608;6.916;2023-08-30T12:03:00;8.20;;;6.70;;
15712;SDS011;7957;51.608;6.916;2023-08-30T12:05:31;6.53;;;5.93;;
15712;SDS011;7957;51.608;6.916;2023-08-30T12:08:01;7.27;;;6.40;;
15712;SDS011;7957;51.608;6.916;2023-08-30T12:10:29;6.90;;;6.20;;
15712;SDS011;7957;51.608;6.916;2023-08-30T12:12:58;6.87;;;6.17;;
15712;SDS011;7957;51.608;6.916;2023-08-30T12:15:25;7.90;;;6.63;;
15712;SDS011;7957;51.608;6.916;2023-08-30T12:17:53;7.00;;;6.30;;
15712;SDS011;7957;51.608;6.916;2023-08-30T12:20:21;6.43;;;5.90;;
15712;SDS011;7957;51.608;6.916;2023-08-30T12:22:48;7.57;;;6.80;;
15712;SDS011;7957;51.608;6.916;2023-08-30T12:25:18;6.70;;;6.10;;
15712;SDS011;7957;51.608;6.916;2023-08-30T12:27:46;7.13;;;6.33;;
15712;SDS011;7957;51.608;6.916;2023-08-30T12:30:13;7.30;;;6.70;;
15712;SDS011;7957;51.608;6.916;2023-08-30T12:32:41;7.30;;;6.70;;
15712;SDS011;7957;51.608;6.916;2023-08-30T12:35:10;6.80;;;6.20;;
15712;SDS011;7957;51.608;6.916;2023-08-30T12:37:37;7.73;;;6.93;;
15712;SDS011;7957;51.608;6.916;2023-08-30T12:40:05;7.80;;;7.03;;
15712;SDS011;7957;51.608;6.916;2023-08-30T12:42:34;7.73;;;7.03;;
15712;SDS011;7957;51.608;6.916;2023-08-30T12:45:01;7.40;;;6.80;;
15712;SDS011;7957;51.608;6.916;2023-08-30T12:47:29;6.80;;;6.30;;
15712;SDS011;7957;51.608;6.916;2023-08-30T12:49:56;7.87;;;7.07;;
15712;SDS011;7957;51.608;6.916;2023-08-30T12:52:23;6.93;;;6.23;;
15712;SDS011;7957;51.608;6.916;2023-08-30T12:54:50;7.93;;;7.13;;
15712;SDS011;7957;51.608;6.916;2023-08-30T12:57:19;7.43;;;6.57;;
15712;SDS011;7957;51.608;6.916;2023-08-30T12:59:47;7.73;;;7.03;;
15712;SDS011;7957;51.608;6.916;2023-08-30T13:02:14;8.77;;;7.80;;
15712;SDS011;7957;51.608;6.916;2023-08-30T13:04:41;7.53;;;6.93;;
15712;SDS011;7957;51.608;6.916;2023-08-30T13:07:08;7.77;;;7.17;;
15712;SDS011;7957;51.608;6.916;2023-08-30T13:09:35;7.67;;;7.03;;
15712;SDS011;7957;51.608;6.916;2023-08-30T13:12:02;6.73;;;6.13;;
15712;SDS011;7957;51.608;6.916;2023-08-30T13:14:30;6.80;;;6.20;;
15712;SDS011;7957;51.608;6.916;2023-08-30T13:16:58;7.03;;;6.43;;
15712;SDS011;7957;51.608;6.916;2023-08-30T13:19:25;7.30;;;6.60;;
15712;SDS011;7957;51.608;6.916;2023-08-30T13:21:52;6.93;;;6.33;;
15712;SDS011;7957;51.608;6.916;2023-08-30T13:24:20;7.10;;;6.50;;
15712;SDS011;7957;51.608;6.916;2023-08-30T13:26:46;7.47;;;6.70;;
15712;SDS011;7957;51.608;6.916;2023-08-30T13:29:13;6.57;;;5.97;;
15712;SDS011;7957;51.608;6.916;2023-08-30T13:31:41;6.40;;;5.90;;
15712;SDS011;7957;51.608;6.916;2023-08-30T13:34:09;6.30;;;5.80;;
15712;SDS011;7957;51.608;6.916;2023-08-30T13:36:36;6.50;;;5.97;;
15712;SDS011;7957;51.608;6.916;2023-08-30T13:39:04;7.67;;;6.97;;
15712;SDS011;7957;51.608;6.916;2023-08-30T13:41:31;8.20;;;7.60;;
15712;SDS011;7957;51.608;6.916;2023-08-30T13:43:58;7.63;;;6.90;;
15712;SDS011;7957;51.608;6.916;2023-08-30T13:46:24;8.17;;;6.77;;
15712;SDS011;7957;51.608;6.916;2023-08-30T13:48:51;9.17;;;8.27;;
15712;SDS011;7957;51.608;6.916;2023-08-30T13:51:21;8.50;;;7.60;;
15712;SDS011;7957;51.608;6.916;2023-08-30T13:53:49;9.47;;;7.63;;
15712;SDS011;7957;51.608;6.916;2023-08-30T13:56:16;9.07;;;8.17;;
15712;SDS011;7957;51.608;6.916;2023-08-30T13:58:44;7.47;;;6.53;;
15712;SDS011;7957;51.608;6.916;2023-08-30T14:01:11;7.93;;;7.10;;
15712;SDS011;7957;51.608;6.916;2023-08-30T14:03:38;6.90;;;6.30;;
15712;SDS011;7957;51.608;6.916;2023-08-30T14:06:05;7.07;;;6.40;;
15712;SDS011;7957;51.608;6.916;2023-08-30T14:08:33;7.43;;;6.53;;
15712;SDS011;7957;51.608;6.916;2023-08-30T14:11:00;7.83;;;7.00;;
15712;SDS011;7957;51.608;6.916;2023-08-30T14:13:28;7.70;;;6.90;;
15712;SDS011;7957;51.608;6.916;2023-08-30T14:15:57;7.43;;;6.53;;
15712;SDS011;7957;51.608;6.916;2023-08-30T14:18:24;6.90;;;6.20;;
15712;SDS011;7957;51.608;6.916;2023-08-30T14:20:54;6.70;;;6.00;;
15712;SDS011;7957;51.608;6.916;2023-08-30T14:23:22;7.27;;;6.13;;
15712;SDS011;7957;51.608;6.916;2023-08-30T14:25:56;6.90;;;5.97;;
15712;SDS011;7957;51.608;6.916;2023-08-30T14:28:24;6.63;;;5.93;;
15712;SDS011;7957;51.608;6.916;2023-08-30T14:30:51;6.77;;;6.07;;
15712;SDS011;7957;51.608;6.916;2023-08-30T14:33:18;6.97;;;5.53;;
15712;SDS011;7957;51.608;6.916;2023-08-30T14:35:45;6.60;;;6.00;;
15712;SDS011;7957;51.608;6.916;2023-08-30T14:38:12;6.07;;;5.50;;
15712;SDS011;7957;51.608;6.916;2023-08-30T14:40:40;5.83;;;5.33;;
15712;SDS011;7957;51.608;6.916;2023-08-30T14:43:08;5.80;;;5.30;;
15712;SDS011;7957;51.608;6.916;2023-08-30T14:45:35;7.40;;;5.90;;
15712;SDS011;7957;51.608;6.916;2023-08-30T14:48:02;6.23;;;5.60;;
15712;SDS011;7957;51.608;6.916;2023-08-30T14:50:30;6.07;;;5.47;;
15712;SDS011;7957;51.608;6.916;2023-08-30T14:52:56;6.23;;;5.73;;